PWSweather.com
Personal Weather Stations
Station Observations
DEKREUPEL
Wsv De Kreupel, AndijkNL 1619 JV

Wsv De KreupelAndijkNL 1619 JV

Lat: 52.7417364, Lon: 5.1809356

Elevation: 33

Station Type: Rainwise MKiii LR

Latest ConditionsUpdated 2:10:00 PM GMT+01:01 Monday, May 29, 2017
Currently Today's Max Today's Min Today's Average
Temperature 67.0°F19.4°C 70.3°F21.3°C 61.2°F16.2°C 64.2°F17.9°C
Dew Point 95.7°F35.4°C 99.6°F37.6°C 89.2°F31.8°C 92.6°F33.7°C
Winds Calm Calm Calm NECalm NE - Calm Calm
Wind Gusts -- -- - -
Humidity - 0% 0% 0%
Pressure 29.96 in1014.6 mb 30.16 in1021.3 mb 29.95 in1014.2 mb -
Precipitation - 0.17 in4.3 mm - -
Hour Temp Dew Point Humidity Winds Wind Gusts Pressure Precip Precip Rate Daily Precip Total
02:10 PM 67.0°F19.4°C 95.7°F35.4°C - Calm Calm -- 29.96 in1014.6 mb 0.00 in0.0 mm 0.00 in0.0 mm 0.17 in4.3 mm
02:04 PM 66.8°F19.3°C 95.5°F35.3°C - Calm Calm -- 29.96 in1014.6 mb 0.00 in0.0 mm 0.00 in0.0 mm 0.17 in4.3 mm
02:00 PM 66.9°F19.4°C 95.6°F35.3°C - Calm Calm -- 29.96 in1014.6 mb 0.00 in0.0 mm 0.00 in0.0 mm 0.17 in4.3 mm
01:55 PM 67.4°F19.7°C 96.3°F35.7°C - Calm Calm -- 29.96 in1014.6 mb 0.00 in0.0 mm 0.00 in0.0 mm 0.17 in4.3 mm
01:50 PM 67.9°F19.9°C 96.8°F36.0°C - Calm Calm -- 29.96 in1014.6 mb 0.00 in0.0 mm 0.00 in0.0 mm 0.17 in4.3 mm
01:44 PM 68.0°F20.0°C 97.0°F36.1°C - Calm Calm -- 29.96 in1014.6 mb 0.00 in0.0 mm 0.00 in0.0 mm 0.17 in4.3 mm
01:39 PM 68.0°F20.0°C 97.0°F36.1°C - Calm Calm -- 29.96 in1014.6 mb 0.00 in0.0 mm 0.00 in0.0 mm 0.17 in4.3 mm
01:34 PM 68.1°F20.1°C 97.1°F36.2°C - Calm Calm -- 29.96 in1014.6 mb 0.00 in0.0 mm 0.00 in0.0 mm 0.17 in4.3 mm
01:29 PM 68.4°F20.2°C 97.4°F36.3°C - Calm Calm -- 29.96 in1014.6 mb 0.00 in0.0 mm 0.00 in0.0 mm 0.17 in4.3 mm
01:24 PM 68.8°F20.4°C 97.9°F36.6°C - Calm Calm -- 29.97 in1014.9 mb 0.00 in0.0 mm 0.00 in0.0 mm 0.17 in4.3 mm
01:19 PM 69.3°F20.7°C 98.4°F36.9°C - Calm Calm -- 29.97 in1014.9 mb 0.00 in0.0 mm 0.00 in0.0 mm 0.17 in4.3 mm
01:14 PM 69.8°F21.0°C 99.0°F37.2°C - Calm Calm -- 29.97 in1014.9 mb 0.00 in0.0 mm 0.00 in0.0 mm 0.17 in4.3 mm
01:09 PM 70.2°F21.2°C 99.4°F37.4°C - Calm Calm -- 29.97 in1014.9 mb 0.00 in0.0 mm 0.00 in0.0 mm 0.17 in4.3 mm
01:04 PM 70.2°F21.2°C 99.4°F37.4°C - Calm Calm -- 29.97 in1014.9 mb 0.00 in0.0 mm 0.00 in0.0 mm 0.17 in4.3 mm
12:59 PM 70.2°F21.2°C 99.3°F37.4°C - Calm Calm -- 29.98 in1015.2 mb 0.00 in0.0 mm 0.00 in0.0 mm 0.17 in4.3 mm
12:54 PM 70.2°F21.2°C 99.4°F37.4°C - Calm Calm -- 29.98 in1015.2 mb 0.00 in0.0 mm 0.00 in0.0 mm 0.17 in4.3 mm
12:49 PM 69.8°F21.0°C 99.0°F37.2°C - Calm Calm -- 29.98 in1015.2 mb 0.00 in0.0 mm 0.00 in0.0 mm 0.17 in4.3 mm
12:44 PM 69.3°F20.7°C 98.4°F36.9°C - Calm Calm -- 29.98 in1015.2 mb 0.00 in0.0 mm 0.00 in0.0 mm 0.17 in4.3 mm
12:39 PM 69.0°F20.6°C 98.1°F36.7°C - Calm Calm -- 29.98 in1015.2 mb 0.00 in0.0 mm 0.00 in0.0 mm 0.17 in4.3 mm
12:34 PM 69.0°F20.6°C 98.1°F36.7°C - Calm Calm -- 29.98 in1015.2 mb 0.00 in0.0 mm 0.00 in0.0 mm 0.17 in4.3 mm
12:29 PM 69.0°F20.6°C 98.1°F36.7°C - Calm Calm -- 29.98 in1015.2 mb 0.00 in0.0 mm 0.00 in0.0 mm 0.17 in4.3 mm
12:24 PM 68.9°F20.5°C 97.8°F36.6°C - Calm Calm -- 29.98 in1015.2 mb 0.00 in0.0 mm 0.00 in0.0 mm 0.17 in4.3 mm
12:19 PM 68.9°F20.5°C 98.0°F36.7°C - Calm Calm -- 29.98 in1015.2 mb 0.00 in0.0 mm 0.00 in0.0 mm 0.17 in4.3 mm
12:14 PM 69.2°F20.7°C 98.3°F36.8°C - Calm Calm -- 29.98 in1015.2 mb 0.00 in0.0 mm 0.00 in0.0 mm 0.17 in4.3 mm
12:10 PM 69.5°F20.8°C 98.7°F37.1°C - Calm Calm -- 29.97 in1014.9 mb 0.00 in0.0 mm 0.00 in0.0 mm 0.17 in4.3 mm
12:04 PM 69.7°F20.9°C 98.7°F37.1°C - Calm Calm -- 29.97 in1014.9 mb 0.00 in0.0 mm 0.00 in0.0 mm 0.17 in4.3 mm
11:59 AM 70.0°F21.1°C 99.2°F37.3°C - Calm Calm -- 29.97 in1014.9 mb 0.00 in0.0 mm 0.00 in0.0 mm 0.17 in4.3 mm
11:54 AM 70.3°F21.3°C 99.6°F37.6°C - Calm Calm -- 29.98 in1015.2 mb 0.00 in0.0 mm 0.00 in0.0 mm 0.17 in4.3 mm
11:49 AM 70.2°F21.2°C 99.4°F37.4°C - Calm Calm -- 29.98 in1015.2 mb 0.00 in0.0 mm 0.00 in0.0 mm 0.17 in4.3 mm
11:44 AM 69.9°F21.1°C 99.0°F37.2°C - Calm Calm -- 29.98 in1015.2 mb 0.00 in0.0 mm 0.00 in0.0 mm 0.17 in4.3 mm
11:39 AM 69.4°F20.8°C 98.5°F36.9°C - Calm Calm -- 29.99 in1015.6 mb 0.00 in0.0 mm 0.00 in0.0 mm 0.17 in4.3 mm
11:34 AM 69.2°F20.7°C 98.3°F36.8°C - Calm Calm -- 29.99 in1015.6 mb 0.00 in0.0 mm 0.00 in0.0 mm 0.17 in4.3 mm
11:29 AM 69.2°F20.7°C 98.3°F36.8°C - Calm Calm -- 29.99 in1015.6 mb 0.00 in0.0 mm 0.00 in0.0 mm 0.17 in4.3 mm
11:24 AM 69.1°F20.6°C 98.2°F36.8°C - Calm Calm -- 29.99 in1015.6 mb 0.00 in0.0 mm 0.00 in0.0 mm 0.17 in4.3 mm
11:19 AM 69.0°F20.6°C 98.0°F36.7°C - Calm Calm -- 29.99 in1015.6 mb 0.00 in0.0 mm 0.00 in0.0 mm 0.17 in4.3 mm
11:14 AM 69.0°F20.6°C 98.1°F36.7°C - Calm Calm -- 29.99 in1015.6 mb 0.00 in0.0 mm 0.00 in0.0 mm 0.17 in4.3 mm
11:09 AM 68.7°F20.4°C 97.6°F36.4°C - Calm Calm -- 29.99 in1015.6 mb 0.00 in0.0 mm 0.00 in0.0 mm 0.17 in4.3 mm
11:04 AM 68.5°F20.3°C 97.5°F36.4°C - Calm Calm -- 29.98 in1015.2 mb 0.00 in0.0 mm 0.00 in0.0 mm 0.17 in4.3 mm
11:00 AM 68.3°F20.2°C 97.2°F36.2°C - Calm Calm -- 29.98 in1015.2 mb 0.00 in0.0 mm 0.00 in0.0 mm 0.17 in4.3 mm
10:54 AM 68.1°F20.1°C 97.1°F36.2°C - Calm Calm -- 29.98 in1015.2 mb 0.00 in0.0 mm 0.00 in0.0 mm 0.17 in4.3 mm
10:49 AM 67.9°F19.9°C 96.8°F36.0°C - Calm Calm -- 29.98 in1015.2 mb 0.00 in0.0 mm 0.00 in0.0 mm 0.17 in4.3 mm
10:44 AM 67.9°F19.9°C 96.8°F36.0°C - Calm Calm -- 29.98 in1015.2 mb 0.00 in0.0 mm 0.00 in0.0 mm 0.17 in4.3 mm
10:39 AM 67.7°F19.8°C 96.6°F35.9°C - Calm Calm -- 29.98 in1015.2 mb 0.00 in0.0 mm 0.00 in0.0 mm 0.17 in4.3 mm
10:34 AM 67.6°F19.8°C 96.4°F35.8°C - Calm Calm -- 29.98 in1015.2 mb 0.00 in0.0 mm 0.00 in0.0 mm 0.17 in4.3 mm
10:29 AM 67.5°F19.7°C 96.4°F35.8°C - Calm Calm -- 29.98 in1015.2 mb 0.00 in0.0 mm 0.00 in0.0 mm 0.17 in4.3 mm
10:24 AM 67.2°F19.6°C 96.1°F35.6°C - Calm Calm -- 29.98 in1015.2 mb 0.00 in0.0 mm 0.00 in0.0 mm 0.17 in4.3 mm
10:19 AM 66.9°F19.4°C 95.7°F35.4°C - Calm Calm -- 29.98 in1015.2 mb 0.00 in0.0 mm 0.00 in0.0 mm 0.17 in4.3 mm
10:14 AM 66.7°F19.3°C 95.5°F35.3°C - Calm Calm -- 29.98 in1015.2 mb 0.00 in0.0 mm 0.00 in0.0 mm 0.17 in4.3 mm
10:09 AM 66.7°F19.3°C 95.5°F35.3°C - Calm Calm -- 29.98 in1015.2 mb 0.00 in0.0 mm 0.00 in0.0 mm 0.17 in4.3 mm
10:04 AM 66.7°F19.3°C 95.4°F35.2°C - Calm Calm -- 29.99 in1015.6 mb 0.00 in0.0 mm 0.00 in0.0 mm 0.17 in4.3 mm
10:00 AM 66.5°F19.2°C 95.3°F35.2°C - Calm Calm -- 29.99 in1015.6 mb 0.00 in0.0 mm 0.00 in0.0 mm 0.17 in4.3 mm
09:54 AM 66.2°F19.0°C 94.9°F34.9°C - Calm Calm -- 29.99 in1015.6 mb 0.00 in0.0 mm 0.00 in0.0 mm 0.17 in4.3 mm
09:49 AM 66.0°F18.9°C 94.7°F34.8°C - Calm Calm -- 29.99 in1015.6 mb 0.00 in0.0 mm 0.00 in0.0 mm 0.17 in4.3 mm
09:44 AM 65.4°F18.6°C 94.0°F34.4°C - Calm Calm -- 30.00 in1015.9 mb 0.00 in0.0 mm 0.00 in0.0 mm 0.17 in4.3 mm
09:40 AM 64.9°F18.3°C 93.3°F34.1°C - Calm Calm -- 30.00 in1015.9 mb 0.00 in0.0 mm 0.00 in0.0 mm 0.17 in4.3 mm
09:35 AM 64.7°F18.2°C 93.2°F34.0°C - Calm Calm -- 30.00 in1015.9 mb 0.00 in0.0 mm 0.00 in0.0 mm 0.17 in4.3 mm
09:29 AM 64.5°F18.1°C 93.0°F33.9°C - Calm Calm -- 30.00 in1015.9 mb 0.00 in0.0 mm 0.00 in0.0 mm 0.17 in4.3 mm
09:24 AM 64.3°F17.9°C 92.7°F33.7°C - Calm Calm -- 30.00 in1015.9 mb 0.00 in0.0 mm 0.00 in0.0 mm 0.17 in4.3 mm
09:19 AM 64.2°F17.9°C 92.5°F33.6°C - Calm Calm -- 30.00 in1015.9 mb 0.00 in0.0 mm 0.00 in0.0 mm 0.17 in4.3 mm
09:14 AM 64.0°F17.8°C 92.3°F33.5°C - Calm Calm -- 30.00 in1015.9 mb 0.00 in0.0 mm 0.00 in0.0 mm 0.17 in4.3 mm
09:09 AM 63.7°F17.6°C 92.0°F33.3°C - Calm Calm -- 30.00 in1015.9 mb 0.00 in0.0 mm 0.00 in0.0 mm 0.17 in4.3 mm
09:04 AM 63.5°F17.5°C 91.9°F33.3°C - Calm Calm -- 30.00 in1015.9 mb 0.00 in0.0 mm 0.00 in0.0 mm 0.17 in4.3 mm
08:59 AM 63.4°F17.4°C 91.8°F33.2°C - Calm Calm -- 30.00 in1015.9 mb 0.00 in0.0 mm 0.00 in0.0 mm 0.17 in4.3 mm
08:54 AM 63.1°F17.3°C 91.4°F33.0°C - Calm Calm -- 30.00 in1015.9 mb 0.00 in0.0 mm 0.00 in0.0 mm 0.17 in4.3 mm
08:49 AM 63.0°F17.2°C 91.2°F32.9°C - Calm Calm -- 30.00 in1015.9 mb 0.00 in0.0 mm 0.00 in0.0 mm 0.16 in4.1 mm
08:44 AM 63.1°F17.3°C 91.4°F33.0°C - Calm Calm -- 30.01 in1016.3 mb 0.00 in0.0 mm 0.00 in0.0 mm 0.16 in4.1 mm
08:39 AM 62.9°F17.2°C 91.1°F32.8°C - Calm Calm -- 30.01 in1016.3 mb 0.00 in0.0 mm 0.00 in0.0 mm 0.16 in4.1 mm
08:34 AM 62.7°F17.1°C 91.0°F32.8°C - Calm Calm -- 30.01 in1016.3 mb 0.00 in0.0 mm 0.00 in0.0 mm 0.16 in4.1 mm
08:29 AM 62.7°F17.1°C 90.9°F32.7°C - Calm Calm -- 30.01 in1016.3 mb 0.00 in0.0 mm 0.00 in0.0 mm 0.16 in4.1 mm
08:24 AM 62.8°F17.1°C 91.1°F32.8°C - Calm Calm -- 30.00 in1015.9 mb 0.00 in0.0 mm 0.00 in0.0 mm 0.16 in4.1 mm
08:19 AM 62.9°F17.2°C 91.2°F32.9°C - Calm Calm -- 30.00 in1015.9 mb 0.00 in0.0 mm 0.00 in0.0 mm 0.16 in4.1 mm
08:14 AM 62.8°F17.1°C 91.0°F32.8°C - Calm Calm -- 30.00 in1015.9 mb 0.00 in0.0 mm 0.00 in0.0 mm 0.16 in4.1 mm
08:09 AM 62.9°F17.2°C 91.2°F32.9°C - Calm Calm -- 30.01 in1016.3 mb 0.00 in0.0 mm 0.00 in0.0 mm 0.16 in4.1 mm
08:04 AM 63.1°F17.3°C 91.4°F33.0°C - Calm Calm -- 30.01 in1016.3 mb 0.00 in0.0 mm 0.00 in0.0 mm 0.16 in4.1 mm
07:59 AM 63.1°F17.3°C 91.4°F33.0°C - Calm Calm -- 30.01 in1016.3 mb 0.00 in0.0 mm 0.00 in0.0 mm 0.16 in4.1 mm
07:54 AM 62.8°F17.1°C 91.0°F32.8°C - Calm Calm -- 30.01 in1016.3 mb 0.00 in0.0 mm 0.00 in0.0 mm 0.16 in4.1 mm
07:49 AM 62.7°F17.1°C 91.0°F32.8°C - Calm Calm -- 30.02 in1016.6 mb 0.00 in0.0 mm 0.00 in0.0 mm 0.16 in4.1 mm
07:45 AM 62.6°F17.0°C 90.9°F32.7°C - Calm Calm -- 30.02 in1016.6 mb 0.00 in0.0 mm 0.00 in0.0 mm 0.16 in4.1 mm
07:39 AM 62.2°F16.8°C 90.4°F32.4°C - Calm Calm -- 30.02 in1016.6 mb 0.00 in0.0 mm 0.00 in0.0 mm 0.16 in4.1 mm
07:34 AM 62.0°F16.7°C 90.2°F32.3°C - Calm Calm -- 30.02 in1016.6 mb 0.00 in0.0 mm 0.00 in0.0 mm 0.16 in4.1 mm
07:29 AM 61.7°F16.5°C 89.9°F32.2°C - Calm Calm -- 30.02 in1016.6 mb 0.00 in0.0 mm 0.00 in0.0 mm 0.16 in4.1 mm
07:25 AM 61.7°F16.5°C 89.9°F32.2°C - Calm Calm -- 30.02 in1016.6 mb 0.00 in0.0 mm 0.00 in0.0 mm 0.16 in4.1 mm
07:19 AM 61.7°F16.5°C 89.7°F32.1°C - Calm Calm -- 30.01 in1016.3 mb 0.00 in0.0 mm 0.00 in0.0 mm 0.16 in4.1 mm
07:14 AM 61.7°F16.5°C 89.9°F32.2°C - Calm Calm -- 30.00 in1015.9 mb 0.00 in0.0 mm 0.00 in0.0 mm 0.16 in4.1 mm
07:10 AM 61.5°F16.4°C 89.5°F31.9°C - Calm Calm -- 29.98 in1015.2 mb 0.00 in0.0 mm 0.00 in0.0 mm 0.16 in4.1 mm
07:04 AM 61.5°F16.4°C 89.6°F32.0°C - Calm Calm -- 29.95 in1014.2 mb 0.00 in0.0 mm 0.00 in0.0 mm 0.16 in4.1 mm
06:59 AM 61.5°F16.4°C 89.5°F31.9°C - Calm Calm -- 29.97 in1014.9 mb 0.00 in0.0 mm 0.00 in0.0 mm 0.15 in3.8 mm
06:54 AM 61.6°F16.4°C 89.7°F32.1°C - Calm Calm -- 30.01 in1016.3 mb 0.00 in0.0 mm 0.00 in0.0 mm 0.13 in3.3 mm
06:49 AM 61.6°F16.4°C 89.7°F32.1°C - Calm Calm -- 30.05 in1017.6 mb 0.00 in0.0 mm 0.00 in0.0 mm 0.11 in2.8 mm
06:44 AM 61.6°F16.4°C 89.7°F32.1°C - Calm Calm -- 30.07 in1018.3 mb 0.00 in0.0 mm 0.00 in0.0 mm 0.11 in2.8 mm
06:39 AM 61.5°F16.4°C 89.6°F32.0°C - Calm Calm -- 30.07 in1018.3 mb 0.00 in0.0 mm 0.00 in0.0 mm 0.10 in2.5 mm
06:34 AM 61.6°F16.4°C 89.7°F32.1°C - Calm Calm -- 30.07 in1018.3 mb 0.00 in0.0 mm 0.00 in0.0 mm 0.10 in2.5 mm
06:30 AM 61.7°F16.5°C 89.7°F32.1°C - Calm Calm -- 30.08 in1018.6 mb 0.00 in0.0 mm 0.00 in0.0 mm 0.09 in2.3 mm
06:25 AM 61.7°F16.5°C 89.9°F32.2°C - Calm Calm -- 30.11 in1019.6 mb 0.00 in0.0 mm 0.00 in0.0 mm 0.09 in2.3 mm
06:19 AM 61.7°F16.5°C 89.9°F32.2°C - Calm Calm -- 30.12 in1020.0 mb 0.00 in0.0 mm 0.00 in0.0 mm 0.05 in1.3 mm
06:14 AM 61.9°F16.6°C 90.1°F32.3°C - Calm Calm -- 30.14 in1020.7 mb 0.00 in0.0 mm 0.00 in0.0 mm 0.03 in0.8 mm
06:09 AM 62.1°F16.7°C 90.2°F32.3°C - Calm Calm -- 30.16 in1021.3 mb 0.00 in0.0 mm 0.00 in0.0 mm 0.00 in0.0 mm
06:04 AM 61.9°F16.6°C 90.1°F32.3°C - Calm Calm -- 30.16 in1021.3 mb 0.00 in0.0 mm 0.00 in0.0 mm 0.00 in0.0 mm
05:59 AM 61.7°F16.5°C 89.9°F32.2°C - Calm Calm -- 30.12 in1020.0 mb 0.00 in0.0 mm 0.00 in0.0 mm 0.00 in0.0 mm
05:54 AM 61.6°F16.4°C 89.6°F32.0°C - Calm Calm -- 30.10 in1019.3 mb 0.00 in0.0 mm 0.00 in0.0 mm 0.00 in0.0 mm
05:49 AM 61.5°F16.4°C 89.5°F31.9°C - Calm Calm -- 30.08 in1018.6 mb 0.00 in0.0 mm 0.00 in0.0 mm 0.00 in0.0 mm
05:44 AM 61.6°F16.4°C 89.7°F32.1°C - Calm Calm -- 30.08 in1018.6 mb 0.00 in0.0 mm 0.00 in0.0 mm 0.00 in0.0 mm
05:39 AM 61.5°F16.4°C 89.5°F31.9°C - Calm Calm -- 30.08 in1018.6 mb 0.00 in0.0 mm 0.00 in0.0 mm 0.00 in0.0 mm
05:34 AM 61.6°F16.4°C 89.7°F32.1°C - Calm Calm -- 30.07 in1018.3 mb 0.00 in0.0 mm 0.00 in0.0 mm 0.00 in0.0 mm
05:29 AM 61.7°F16.5°C 89.9°F32.2°C - Calm Calm -- 30.07 in1018.3 mb 0.00 in0.0 mm 0.00 in0.0 mm 0.00 in0.0 mm
05:24 AM 61.7°F16.5°C 89.7°F32.1°C - Calm Calm -- 30.06 in1017.9 mb 0.00 in0.0 mm 0.00 in0.0 mm 0.00 in0.0 mm
05:19 AM 61.6°F16.4°C 89.7°F32.1°C - Calm Calm -- 30.06 in1017.9 mb 0.00 in0.0 mm 0.00 in0.0 mm 0.00 in0.0 mm
05:14 AM 61.5°F16.4°C 89.6°F32.0°C - Calm Calm -- 30.06 in1017.9 mb 0.00 in0.0 mm 0.00 in0.0 mm 0.00 in0.0 mm
05:09 AM 61.3°F16.3°C 89.3°F31.8°C - Calm Calm -- 30.06 in1017.9 mb 0.00 in0.0 mm 0.00 in0.0 mm 0.00 in0.0 mm
05:04 AM 61.2°F16.2°C 89.3°F31.8°C - Calm Calm -- 30.06 in1017.9 mb 0.00 in0.0 mm 0.00 in0.0 mm 0.00 in0.0 mm
04:59 AM 61.2°F16.2°C 89.2°F31.8°C - Calm Calm -- 30.06 in1017.9 mb 0.00 in0.0 mm 0.00 in0.0 mm 0.00 in0.0 mm
04:54 AM 61.2°F16.2°C 89.2°F31.8°C - Calm Calm -- 30.06 in1017.9 mb 0.00 in0.0 mm 0.00 in0.0 mm 0.00 in0.0 mm
04:49 AM 61.3°F16.3°C 89.4°F31.9°C - Calm Calm -- 30.06 in1017.9 mb 0.00 in0.0 mm 0.00 in0.0 mm 0.00 in0.0 mm
04:44 AM 61.4°F16.3°C 89.5°F31.9°C - Calm Calm -- 30.06 in1017.9 mb 0.00 in0.0 mm 0.00 in0.0 mm 0.00 in0.0 mm
04:39 AM 61.2°F16.2°C 89.3°F31.8°C - Calm Calm -- 30.06 in1017.9 mb 0.00 in0.0 mm 0.00 in0.0 mm 0.00 in0.0 mm
04:34 AM 61.2°F16.2°C 89.2°F31.8°C - Calm Calm -- 30.06 in1017.9 mb 0.00 in0.0 mm 0.00 in0.0 mm 0.00 in0.0 mm
04:29 AM 61.2°F16.2°C 89.2°F31.8°C - Calm Calm -- 30.07 in1018.3 mb 0.00 in0.0 mm 0.00 in0.0 mm 0.00 in0.0 mm
04:24 AM 61.2°F16.2°C 89.3°F31.8°C - Calm Calm -- 30.07 in1018.3 mb 0.00 in0.0 mm 0.00 in0.0 mm 0.00 in0.0 mm
04:20 AM 61.2°F16.2°C 89.3°F31.8°C - Calm Calm -- 30.07 in1018.3 mb 0.00 in0.0 mm 0.00 in0.0 mm 0.00 in0.0 mm
04:14 AM 61.4°F16.3°C 89.5°F31.9°C - Calm Calm -- 30.07 in1018.3 mb 0.00 in0.0 mm 0.00 in0.0 mm 0.00 in0.0 mm
04:09 AM 61.3°F16.3°C 89.4°F31.9°C - Calm Calm -- 30.08 in1018.6 mb 0.00 in0.0 mm 0.00 in0.0 mm 0.00 in0.0 mm
04:04 AM 61.5°F16.4°C 89.5°F31.9°C - Calm Calm -- 30.08 in1018.6 mb 0.00 in0.0 mm 0.00 in0.0 mm 0.00 in0.0 mm
03:59 AM 61.5°F16.4°C 89.5°F31.9°C - Calm Calm -- 30.08 in1018.6 mb 0.00 in0.0 mm 0.00 in0.0 mm 0.00 in0.0 mm
03:54 AM 61.5°F16.4°C 89.6°F32.0°C - Calm Calm -- 30.08 in1018.6 mb 0.00 in0.0 mm 0.00 in0.0 mm 0.00 in0.0 mm
03:49 AM 61.4°F16.3°C 89.5°F31.9°C - Calm Calm -- 30.08 in1018.6 mb 0.00 in0.0 mm 0.00 in0.0 mm 0.00 in0.0 mm
03:44 AM 61.5°F16.4°C 89.5°F31.9°C - Calm Calm -- 30.08 in1018.6 mb 0.00 in0.0 mm 0.00 in0.0 mm 0.00 in0.0 mm
03:39 AM 61.6°F16.4°C 89.7°F32.1°C - Calm Calm -- 30.09 in1019.0 mb 0.00 in0.0 mm 0.00 in0.0 mm 0.00 in0.0 mm
03:34 AM 61.6°F16.4°C 89.7°F32.1°C - Calm Calm -- 30.09 in1019.0 mb 0.00 in0.0 mm 0.00 in0.0 mm 0.00 in0.0 mm
03:29 AM 61.7°F16.5°C 89.7°F32.1°C - Calm Calm -- 30.10 in1019.3 mb 0.00 in0.0 mm 0.00 in0.0 mm 0.00 in0.0 mm
03:24 AM 61.7°F16.5°C 89.9°F32.2°C - Calm Calm -- 30.10 in1019.3 mb 0.00 in0.0 mm 0.00 in0.0 mm 0.00 in0.0 mm
03:19 AM 61.7°F16.5°C 89.7°F32.1°C - Calm Calm -- 30.10 in1019.3 mb 0.00 in0.0 mm 0.00 in0.0 mm 0.00 in0.0 mm
03:14 AM 61.7°F16.5°C 89.7°F32.1°C - Calm Calm -- 30.09 in1019.0 mb 0.00 in0.0 mm 0.00 in0.0 mm 0.00 in0.0 mm
03:10 AM 61.7°F16.5°C 89.9°F32.2°C - Calm Calm -- 30.10 in1019.3 mb 0.00 in0.0 mm 0.00 in0.0 mm 0.00 in0.0 mm
03:05 AM 61.7°F16.5°C 89.7°F32.1°C - Calm Calm -- 30.10 in1019.3 mb 0.00 in0.0 mm 0.00 in0.0 mm 0.00 in0.0 mm
02:59 AM 61.7°F16.5°C 89.9°F32.2°C - Calm Calm -- 30.10 in1019.3 mb 0.00 in0.0 mm 0.00 in0.0 mm 0.00 in0.0 mm
02:54 AM 61.7°F16.5°C 89.9°F32.2°C - Calm Calm -- 30.09 in1019.0 mb 0.00 in0.0 mm 0.00 in0.0 mm 0.00 in0.0 mm
02:49 AM 61.7°F16.5°C 89.9°F32.2°C - Calm Calm -- 30.09 in1019.0 mb 0.00 in0.0 mm 0.00 in0.0 mm 0.00 in0.0 mm
02:44 AM 61.7°F16.5°C 89.9°F32.2°C - Calm Calm -- 30.10 in1019.3 mb 0.00 in0.0 mm 0.00 in0.0 mm 0.00 in0.0 mm
02:39 AM 61.8°F16.6°C 90.0°F32.2°C - Calm Calm -- 30.10 in1019.3 mb 0.00 in0.0 mm 0.00 in0.0 mm 0.00 in0.0 mm
02:34 AM 61.9°F16.6°C 90.1°F32.3°C - Calm Calm -- 30.10 in1019.3 mb 0.00 in0.0 mm 0.00 in0.0 mm 0.00 in0.0 mm
02:29 AM 62.0°F16.7°C 90.2°F32.3°C - Calm Calm -- 30.10 in1019.3 mb 0.00 in0.0 mm 0.00 in0.0 mm 0.00 in0.0 mm
02:24 AM 62.2°F16.8°C 90.4°F32.4°C - Calm Calm -- 30.10 in1019.3 mb 0.00 in0.0 mm 0.00 in0.0 mm 0.00 in0.0 mm
02:19 AM 62.2°F16.8°C 90.4°F32.4°C - Calm Calm -- 30.11 in1019.6 mb 0.00 in0.0 mm 0.00 in0.0 mm 0.00 in0.0 mm
02:14 AM 62.2°F16.8°C 90.4°F32.4°C - Calm Calm -- 30.11 in1019.6 mb 0.00 in0.0 mm 0.00 in0.0 mm 0.00 in0.0 mm
02:09 AM 62.3°F16.8°C 90.5°F32.5°C - Calm Calm -- 30.11 in1019.6 mb 0.00 in0.0 mm 0.00 in0.0 mm 0.00 in0.0 mm
02:04 AM 62.2°F16.8°C 90.4°F32.4°C - Calm Calm -- 30.11 in1019.6 mb 0.00 in0.0 mm 0.00 in0.0 mm 0.00 in0.0 mm
02:00 AM 62.2°F16.8°C 90.4°F32.4°C - Calm Calm -- 30.11 in1019.6 mb 0.00 in0.0 mm 0.00 in0.0 mm 0.00 in0.0 mm
01:54 AM 62.0°F16.7°C 90.1°F32.3°C - Calm Calm -- 30.11 in1019.6 mb 0.00 in0.0 mm 0.00 in0.0 mm 0.00 in0.0 mm
01:49 AM 61.8°F16.6°C 89.8°F32.1°C - Calm Calm -- 30.11 in1019.6 mb 0.00 in0.0 mm 0.00 in0.0 mm 0.00 in0.0 mm
01:44 AM 61.8°F16.6°C 90.0°F32.2°C - Calm Calm -- 30.11 in1019.6 mb 0.00 in0.0 mm 0.00 in0.0 mm 0.00 in0.0 mm
01:39 AM 62.0°F16.7°C 90.2°F32.3°C - Calm Calm -- 30.11 in1019.6 mb 0.00 in0.0 mm 0.00 in0.0 mm 0.00 in0.0 mm
01:34 AM 62.0°F16.7°C 90.1°F32.3°C - Calm Calm -- 30.11 in1019.6 mb 0.00 in0.0 mm 0.00 in0.0 mm 0.00 in0.0 mm
01:29 AM 62.0°F16.7°C 90.2°F32.3°C - Calm Calm -- 30.10 in1019.3 mb 0.00 in0.0 mm 0.00 in0.0 mm 0.00 in0.0 mm
01:24 AM 62.2°F16.8°C 90.4°F32.4°C - Calm Calm -- 30.10 in1019.3 mb 0.00 in0.0 mm 0.00 in0.0 mm 0.00 in0.0 mm
01:19 AM 62.2°F16.8°C 90.4°F32.4°C - Calm Calm -- 30.10 in1019.3 mb 0.00 in0.0 mm 0.00 in0.0 mm 0.00 in0.0 mm
01:14 AM 62.3°F16.8°C 90.4°F32.4°C - Calm Calm -- 30.10 in1019.3 mb 0.00 in0.0 mm 0.00 in0.0 mm 0.00 in0.0 mm
01:10 AM 62.4°F16.9°C 90.6°F32.6°C - Calm Calm -- 30.10 in1019.3 mb 0.00 in0.0 mm 0.00 in0.0 mm 0.00 in0.0 mm
01:04 AM 62.3°F16.8°C 90.4°F32.4°C - Calm Calm -- 30.10 in1019.3 mb 0.00 in0.0 mm 0.00 in0.0 mm 0.00 in0.0 mm
12:59 AM 62.5°F16.9°C 90.6°F32.6°C - Calm Calm -- 30.11 in1019.6 mb 0.00 in0.0 mm 0.00 in0.0 mm 0.00 in0.0 mm
12:54 AM 62.6°F17.0°C 90.7°F32.6°C - Calm Calm -- 30.11 in1019.6 mb 0.00 in0.0 mm 0.00 in0.0 mm 0.00 in0.0 mm
12:49 AM 62.7°F17.1°C 91.0°F32.8°C - Calm Calm -- 30.11 in1019.6 mb 0.00 in0.0 mm 0.00 in0.0 mm 0.00 in0.0 mm
12:44 AM 62.7°F17.1°C 91.0°F32.8°C - Calm Calm -- 30.12 in1020.0 mb 0.00 in0.0 mm 0.00 in0.0 mm 0.00 in0.0 mm
12:39 AM 62.8°F17.1°C 91.1°F32.8°C - Calm Calm -- 30.12 in1020.0 mb 0.00 in0.0 mm 0.00 in0.0 mm 0.00 in0.0 mm
12:34 AM 63.0°F17.2°C 91.2°F32.9°C - Calm Calm -- 30.12 in1020.0 mb 0.00 in0.0 mm 0.00 in0.0 mm 0.00 in0.0 mm
12:29 AM 63.0°F17.2°C 91.2°F32.9°C - Calm Calm -- 30.12 in1020.0 mb 0.00 in0.0 mm 0.00 in0.0 mm 0.00 in0.0 mm
12:24 AM 63.0°F17.2°C 91.2°F32.9°C - Calm Calm -- 30.12 in1020.0 mb 0.00 in0.0 mm 0.00 in0.0 mm 0.00 in0.0 mm
12:19 AM 63.0°F17.2°C 91.3°F32.9°C - Calm Calm -- 30.12 in1020.0 mb 0.00 in0.0 mm 0.00 in0.0 mm 0.00 in0.0 mm
12:14 AM 63.0°F17.2°C 91.3°F32.9°C - Calm Calm -- 30.12 in1020.0 mb 0.00 in0.0 mm 0.00 in0.0 mm 0.00 in0.0 mm
12:09 AM 62.7°F17.1°C 90.9°F32.7°C - Calm Calm -- 30.12 in1020.0 mb 0.00 in0.0 mm 0.00 in0.0 mm 0.00 in0.0 mm
12:04 AM 62.7°F17.1°C 91.0°F32.8°C - Calm Calm -- 30.12 in1020.0 mb 0.00 in0.0 mm 0.00 in0.0 mm 0.00 in0.0 mm